createdAt,value
2023-05-15T00:04:10.225Z,7.05
2023-05-15T00:09:18.955Z,8.10
2023-05-15T00:14:29.061Z,7.93
2023-05-15T00:19:37.787Z,7.23
2023-05-15T00:24:46.430Z,7.97
2023-05-15T00:29:56.503Z,8.88
2023-05-15T00:35:06.095Z,9.07
2023-05-15T00:40:21.751Z,9.02
2023-05-15T00:45:32.088Z,8.80
2023-05-15T00:50:36.095Z,9.32
2023-05-15T01:00:57.263Z,10.35
2023-05-15T01:06:06.740Z,10.10
2023-05-15T01:11:18.150Z,11.18
2023-05-15T01:16:29.350Z,11.10
2023-05-15T01:22:11.703Z,10.87
2023-05-15T01:27:28.371Z,10.63
2023-05-15T01:32:38.832Z,11.48
2023-05-15T01:37:52.758Z,10.55
2023-05-15T01:43:02.500Z,12.75
2023-05-15T01:48:09.719Z,13.52
2023-05-15T01:53:20.073Z,13.35
2023-05-15T01:58:32.027Z,13.95
2023-05-15T02:03:42.302Z,13.30
2023-05-15T02:08:52.642Z,12.93
2023-05-15T02:14:03.856Z,13.18
2023-05-15T02:19:08.003Z,11.43
2023-05-15T02:24:11.813Z,11.70
2023-05-15T02:29:21.237Z,11.43
2023-05-15T02:34:38.021Z,12.25
2023-05-15T02:39:44.159Z,11.73
2023-05-15T02:44:51.504Z,11.63
2023-05-15T02:49:55.553Z,11.25
2023-05-15T02:55:04.489Z,11.13
2023-05-15T03:00:13.510Z,12.18
2023-05-15T03:05:22.399Z,11.93
2023-05-15T03:10:26.170Z,11.18
2023-05-15T03:15:36.285Z,11.30
2023-05-15T03:20:44.981Z,12.27
2023-05-15T03:25:53.696Z,12.52
2023-05-15T03:31:04.946Z,13.23
2023-05-15T03:36:08.977Z,13.65
2023-05-15T03:41:17.740Z,12.52
2023-05-15T03:46:22.858Z,13.23
2023-05-15T03:51:26.860Z,12.77
2023-05-15T03:56:35.977Z,12.05
2023-05-15T04:01:55.373Z,11.43
2023-05-15T04:07:09.772Z,11.70
2023-05-15T04:12:18.499Z,12.10
2023-05-15T04:17:28.747Z,12.40
2023-05-15T04:22:37.406Z,13.27
2023-05-15T04:27:41.449Z,13.23
2023-05-15T04:32:52.096Z,12.52
2023-05-15T04:38:01.878Z,12.43
2023-05-15T04:43:10.619Z,11.90
2023-05-15T04:48:20.734Z,11.85
2023-05-15T04:53:29.460Z,13.70
2023-05-15T04:58:38.149Z,13.75
2023-05-15T05:03:48.276Z,14.00
2023-05-15T05:08:57.019Z,14.68
2023-05-15T05:14:00.874Z,14.43
2023-05-15T05:19:11.128Z,15.63
2023-05-15T05:24:14.935Z,14.55
2023-05-15T05:29:18.613Z,13.85
2023-05-15T05:34:28.787Z,14.15
2023-05-15T05:39:37.455Z,15.38
2023-05-15T05:44:41.237Z,12.95
2023-05-15T05:49:51.412Z,13.48
2023-05-15T05:55:00.445Z,11.63
2023-05-15T06:00:10.970Z,11.10
2023-05-15T06:05:16.829Z,10.60
2023-05-15T06:10:21.235Z,9.82
2023-05-15T06:15:25.222Z,9.32
2023-05-15T06:20:30.589Z,7.20
2023-05-15T06:25:34.281Z,7.95
2023-05-15T06:30:37.977Z,8.43
2023-05-15T06:35:43.145Z,7.93
2023-05-15T06:40:47.346Z,7.15
2023-05-15T06:45:56.264Z,7.63
2023-05-15T06:51:06.420Z,7.43
2023-05-15T06:56:15.173Z,6.53
2023-05-15T07:01:23.882Z,6.90
2023-05-15T07:06:31.381Z,6.15
2023-05-15T07:11:42.227Z,5.80
2023-05-15T07:16:51.034Z,6.05
2023-05-15T07:21:56.111Z,5.25
2023-05-15T07:27:00.370Z,5.20
2023-05-15T07:32:09.412Z,4.38
2023-05-15T07:37:19.517Z,4.45
2023-05-15T07:42:23.280Z,4.35
2023-05-15T07:47:31.979Z,4.78
2023-05-15T07:52:43.136Z,4.38
2023-05-15T07:57:54.121Z,4.78
2023-05-15T08:03:03.195Z,4.80
2023-05-15T08:08:13.284Z,4.68
2023-05-15T08:13:21.978Z,5.82
2023-05-15T08:18:30.773Z,4.85
2023-05-15T08:23:35.908Z,4.10
2023-05-15T08:28:44.595Z,3.20
2023-05-15T08:33:53.293Z,3.17
2023-05-15T08:39:03.422Z,3.40
2023-05-15T08:49:21.074Z,3.35
2023-05-15T08:54:26.778Z,3.13
2023-05-15T08:59:30.912Z,2.80
2023-05-15T09:04:39.730Z,3.80
2023-05-15T09:09:46.057Z,3.30
2023-05-15T09:15:09.763Z,2.92
2023-05-15T09:20:27.892Z,2.05
2023-05-15T09:25:38.745Z,2.38
2023-05-15T09:30:47.469Z,2.72
2023-05-15T09:35:56.242Z,2.17
2023-05-15T09:41:07.804Z,2.30
2023-05-15T09:46:17.502Z,1.60
2023-05-15T09:51:28.535Z,1.50
2023-05-15T09:56:38.745Z,1.40
2023-05-15T10:01:48.934Z,1.40
2023-05-15T10:06:57.720Z,1.63
2023-05-15T10:12:10.529Z,1.50
2023-05-15T10:17:21.508Z,1.50
2023-05-15T10:22:31.154Z,1.40
2023-05-15T10:27:37.469Z,1.45
2023-05-15T10:32:46.240Z,1.30
2023-05-15T10:37:58.146Z,1.25
2023-05-15T10:43:11.633Z,1.30
2023-05-15T10:48:20.945Z,1.38
2023-05-15T10:53:29.773Z,1.42
2023-05-15T10:58:39.879Z,1.60
2023-05-15T11:03:49.239Z,1.67
2023-05-15T11:09:40.899Z,1.65
2023-05-15T11:15:23.880Z,1.35
2023-05-15T11:20:39.238Z,2.17
2023-05-15T11:25:55.165Z,1.45
2023-05-15T11:31:08.208Z,1.58
2023-05-15T11:36:18.502Z,1.52
2023-05-15T11:41:32.950Z,1.70
2023-05-15T11:46:44.101Z,2.58
2023-05-15T11:51:49.646Z,1.50
2023-05-15T11:56:58.587Z,1.25
2023-05-15T12:02:08.873Z,1.13
2023-05-15T12:07:13.091Z,0.90
2023-05-15T12:12:21.905Z,0.80
2023-05-15T12:17:27.741Z,1.02
2023-05-15T12:22:37.668Z,0.82
2023-05-15T12:27:43.423Z,1.15
2023-05-15T12:32:48.684Z,1.05
2023-05-15T12:37:57.546Z,1.10
2023-05-15T12:43:07.939Z,1.02
2023-05-15T12:48:16.321Z,0.80
2023-05-15T12:53:22.969Z,0.60
2023-05-15T12:58:31.829Z,0.70
2023-05-15T13:03:44.353Z,0.60
2023-05-15T13:08:55.494Z,0.75
2023-05-15T13:14:10.956Z,0.80
2023-05-15T13:19:21.197Z,0.65
2023-05-15T13:24:30.001Z,0.85
2023-05-15T13:29:33.716Z,0.75
2023-05-15T13:34:44.130Z,0.77
2023-05-15T13:39:52.872Z,0.70
2023-05-15T13:45:01.680Z,0.70
2023-05-15T13:50:13.610Z,0.60
2023-05-15T13:55:23.296Z,0.80
2023-05-15T14:00:34.557Z,0.80
2023-05-15T14:05:39.591Z,0.90
2023-05-15T14:10:48.283Z,0.80
2023-05-15T14:15:57.068Z,0.75
2023-05-15T14:21:02.245Z,1.33
2023-05-15T14:26:11.003Z,0.80
2023-05-15T14:31:19.736Z,0.80
2023-05-15T14:36:24.841Z,0.70
2023-05-15T14:41:33.803Z,0.98
2023-05-15T14:46:43.364Z,1.55
2023-05-15T14:51:53.687Z,1.00
2023-05-15T14:57:02.463Z,0.80
2023-05-15T15:02:11.249Z,0.68
2023-05-15T15:07:21.588Z,0.95
2023-05-15T15:12:30.327Z,0.90
2023-05-15T15:17:39.174Z,0.82
2023-05-15T15:22:44.441Z,1.20
2023-05-15T15:33:02.182Z,1.00
2023-05-15T15:38:07.791Z,1.10
2023-05-15T15:43:11.634Z,0.80
2023-05-15T15:48:15.525Z,1.10
2023-05-15T15:53:20.812Z,1.10
2023-05-15T15:58:30.114Z,3.13
2023-05-15T16:03:38.879Z,4.97
2023-05-15T16:08:49.049Z,1.00
2023-05-15T16:13:57.840Z,1.30
2023-05-15T16:19:06.753Z,0.90
2023-05-15T16:24:11.916Z,1.30
2023-05-15T16:29:15.685Z,1.35
2023-05-15T16:34:25.156Z,1.10
2023-05-15T16:39:32.320Z,2.40
2023-05-15T16:44:41.041Z,1.92
2023-05-15T16:49:50.601Z,1.10
2023-05-15T16:54:55.900Z,1.23
2023-05-15T16:59:59.901Z,0.90
2023-05-15T17:05:10.043Z,0.70
2023-05-15T17:10:23.414Z,0.68
2023-05-15T17:15:27.652Z,0.70
2023-05-15T17:20:31.623Z,0.50
2023-05-15T17:25:36.745Z,1.10
2023-05-15T17:30:40.685Z,1.15
2023-05-15T17:35:49.415Z,0.88
2023-05-15T17:40:59.598Z,1.10
2023-05-15T17:46:08.428Z,1.10
2023-05-15T17:51:12.516Z,1.15
2023-05-15T17:56:18.588Z,1.20
2023-05-15T18:01:22.500Z,1.10
2023-05-15T18:06:34.176Z,1.05
2023-05-15T18:11:44.676Z,1.20
2023-05-15T18:16:48.380Z,0.88
2023-05-15T18:21:57.537Z,1.00
2023-05-15T18:27:07.720Z,0.80
2023-05-15T18:32:16.414Z,0.88
2023-05-15T18:37:25.328Z,0.85
2023-05-15T18:42:35.572Z,0.80
2023-05-15T18:47:44.423Z,0.80
2023-05-15T18:52:48.730Z,1.27
2023-05-15T18:57:58.790Z,1.30
2023-05-15T19:03:08.090Z,1.63
2023-05-15T19:08:17.135Z,1.58
2023-05-15T19:13:29.874Z,2.60
2023-05-15T19:18:38.530Z,2.70
2023-05-15T19:23:47.642Z,1.95
2023-05-15T19:28:58.204Z,2.83
2023-05-15T19:34:07.094Z,7.00
2023-05-15T19:39:15.798Z,2.35
2023-05-15T19:44:25.873Z,2.88
2023-05-15T19:49:34.538Z,1.67
2023-05-15T19:54:44.299Z,1.40
2023-05-15T19:59:55.128Z,1.38
2023-05-15T20:05:04.890Z,1.60
2023-05-15T20:10:14.137Z,1.30
2023-05-15T20:15:19.275Z,1.88
2023-05-15T20:20:28.204Z,1.90
2023-05-15T20:25:32.267Z,1.50
2023-05-15T20:30:42.569Z,1.60
2023-05-15T20:35:51.931Z,1.25
2023-05-15T20:40:57.306Z,1.58
2023-05-15T20:46:09.059Z,1.20
2023-05-15T20:51:12.905Z,1.23
2023-05-15T20:56:21.788Z,1.25
2023-05-15T21:01:31.974Z,1.27
2023-05-15T21:06:35.741Z,1.50
2023-05-15T21:11:46.307Z,1.45
2023-05-15T21:16:51.513Z,1.50
2023-05-15T21:22:00.310Z,1.60
2023-05-15T21:27:09.300Z,1.50
2023-05-15T21:32:14.473Z,1.20
2023-05-15T21:37:18.212Z,1.25
2023-05-15T21:42:27.301Z,1.33
2023-05-15T21:47:37.535Z,1.52
2023-05-15T21:52:41.984Z,1.52
2023-05-15T21:57:51.013Z,1.60
2023-05-15T22:02:56.192Z,1.80
2023-05-15T22:08:05.157Z,1.60
2023-05-15T22:13:13.826Z,1.77
2023-05-15T22:18:24.312Z,1.40
2023-05-15T22:23:33.059Z,1.50
2023-05-15T22:28:42.094Z,1.50
2023-05-15T22:33:52.269Z,1.60
2023-05-15T22:39:00.993Z,1.83
2023-05-15T22:44:09.656Z,1.60
2023-05-15T22:49:23.428Z,1.52
2023-05-15T22:54:32.149Z,1.33
2023-05-15T22:59:40.834Z,1.70
2023-05-15T23:04:46.816Z,1.55
2023-05-15T23:09:55.688Z,1.80
2023-05-15T23:15:04.950Z,1.70
2023-05-15T23:20:15.440Z,1.45
2023-05-15T23:25:19.391Z,1.70
2023-05-15T23:30:26.863Z,1.50
2023-05-15T23:36:02.488Z,1.60
2023-05-15T23:41:08.035Z,1.55
2023-05-15T23:53:06.258Z,1.67
2023-05-15T23:59:27.367Z,1.90
